sensor_id;sensor_type;location;lat;lon;timestamp;temperature;humidity
1205;DHT22;592;48.764;9.174;2023-04-09T00:01:54;7.90;99.90
1205;DHT22;592;48.764;9.174;2023-04-09T00:04:21;7.90;99.90
1205;DHT22;592;48.764;9.174;2023-04-09T00:06:48;7.80;99.90
1205;DHT22;592;48.764;9.174;2023-04-09T00:09:15;7.40;99.90
1205;DHT22;592;48.764;9.174;2023-04-09T00:11:41;7.20;99.90
1205;DHT22;592;48.764;9.174;2023-04-09T00:14:09;7.00;99.90
1205;DHT22;592;48.764;9.174;2023-04-09T00:16:36;6.90;99.90
1205;DHT22;592;48.764;9.174;2023-04-09T00:19:03;6.90;99.90
1205;DHT22;592;48.764;9.174;2023-04-09T00:21:30;6.90;99.90
1205;DHT22;592;48.764;9.174;2023-04-09T00:23:57;6.90;99.90
1205;DHT22;592;48.764;9.174;2023-04-09T00:26:23;7.00;99.90
1205;DHT22;592;48.764;9.174;2023-04-09T00:28:50;7.00;99.90
1205;DHT22;592;48.764;9.174;2023-04-09T00:31:18;7.20;99.90
1205;DHT22;592;48.764;9.174;2023-04-09T00:33:45;7.30;99.90
1205;DHT22;592;48.764;9.174;2023-04-09T00:36:11;7.40;99.90
1205;DHT22;592;48.764;9.174;2023-04-09T00:38:38;7.40;99.90
1205;DHT22;592;48.764;9.174;2023-04-09T00:41:05;7.50;99.90
1205;DHT22;592;48.764;9.174;2023-04-09T00:43:32;7.50;99.90
1205;DHT22;592;48.764;9.174;2023-04-09T00:45:59;7.50;99.90
1205;DHT22;592;48.764;9.174;2023-04-09T00:48:27;7.60;99.90
1205;DHT22;592;48.764;9.174;2023-04-09T00:50:54;7.60;99.90
1205;DHT22;592;48.764;9.174;2023-04-09T00:53:21;7.70;99.90
1205;DHT22;592;48.764;9.174;2023-04-09T00:55:47;7.70;99.90
1205;DHT22;592;48.764;9.174;2023-04-09T00:58:14;7.70;99.90
1205;DHT22;592;48.764;9.174;2023-04-09T01:00:41;7.70;99.90
1205;DHT22;592;48.764;9.174;2023-04-09T01:03:08;7.70;99.90
1205;DHT22;592;48.764;9.174;2023-04-09T01:05:41;7.70;99.90
1205;DHT22;592;48.764;9.174;2023-04-09T01:08:16;7.70;99.90
1205;DHT22;592;48.764;9.174;2023-04-09T01:10:48;7.70;99.90
1205;DHT22;592;48.764;9.174;2023-04-09T01:13:23;7.70;99.90
1205;DHT22;592;48.764;9.174;2023-04-09T01:15:57;7.70;99.90
1205;DHT22;592;48.764;9.174;2023-04-09T01:18:28;7.80;99.90
1205;DHT22;592;48.764;9.174;2023-04-09T01:21:01;7.80;99.90
1205;DHT22;592;48.764;9.174;2023-04-09T01:23:36;7.80;99.90
1205;DHT22;592;48.764;9.174;2023-04-09T01:26:11;7.80;99.90
1205;DHT22;592;48.764;9.174;2023-04-09T01:28:42;7.70;99.90
1205;DHT22;592;48.764;9.174;2023-04-09T01:31:11;7.70;99.90
1205;DHT22;592;48.764;9.174;2023-04-09T01:33:40;7.70;99.90
1205;DHT22;592;48.764;9.174;2023-04-09T01:36:07;7.20;99.90
1205;DHT22;592;48.764;9.174;2023-04-09T01:38:35;7.10;99.90
1205;DHT22;592;48.764;9.174;2023-04-09T01:41:03;7.10;99.90
1205;DHT22;592;48.764;9.174;2023-04-09T01:43:30;7.00;99.90
1205;DHT22;592;48.764;9.174;2023-04-09T01:46:00;7.10;99.90
1205;DHT22;592;48.764;9.174;2023-04-09T01:48:28;7.30;99.90
1205;DHT22;592;48.764;9.174;2023-04-09T01:50:56;7.30;99.90
1205;DHT22;592;48.764;9.174;2023-04-09T01:53:23;7.20;99.90
1205;DHT22;592;48.764;9.174;2023-04-09T01:55:52;7.30;99.90
1205;DHT22;592;48.764;9.174;2023-04-09T01:58:19;7.40;99.90
1205;DHT22;592;48.764;9.174;2023-04-09T02:00:47;7.50;99.90
1205;DHT22;592;48.764;9.174;2023-04-09T02:03:20;7.50;99.90
1205;DHT22;592;48.764;9.174;2023-04-09T02:05:53;7.50;99.90
1205;DHT22;592;48.764;9.174;2023-04-09T02:08:21;7.60;99.90
1205;DHT22;592;48.764;9.174;2023-04-09T02:10:51;7.60;99.90
1205;DHT22;592;48.764;9.174;2023-04-09T02:13:20;7.50;99.90
1205;DHT22;592;48.764;9.174;2023-04-09T02:15:48;7.50;99.90
1205;DHT22;592;48.764;9.174;2023-04-09T02:18:25;7.30;99.90
1205;DHT22;592;48.764;9.174;2023-04-09T02:20:52;7.50;99.90
1205;DHT22;592;48.764;9.174;2023-04-09T02:23:19;7.30;99.90
1205;DHT22;592;48.764;9.174;2023-04-09T02:25:46;7.30;99.90
1205;DHT22;592;48.764;9.174;2023-04-09T02:28:13;7.40;99.90
1205;DHT22;592;48.764;9.174;2023-04-09T02:30:39;7.40;99.90
1205;DHT22;592;48.764;9.174;2023-04-09T02:33:06;7.50;99.90
1205;DHT22;592;48.764;9.174;2023-04-09T02:35:34;7.50;99.90
1205;DHT22;592;48.764;9.174;2023-04-09T02:38:01;7.50;99.90
1205;DHT22;592;48.764;9.174;2023-04-09T02:40:28;7.50;99.90
1205;DHT22;592;48.764;9.174;2023-04-09T02:42:55;7.50;99.90
1205;DHT22;592;48.764;9.174;2023-04-09T02:45:22;7.10;99.90
1205;DHT22;592;48.764;9.174;2023-04-09T02:47:49;7.20;99.90
1205;DHT22;592;48.764;9.174;2023-04-09T02:50:16;7.30;99.90
1205;DHT22;592;48.764;9.174;2023-04-09T02:52:46;7.30;99.90
1205;DHT22;592;48.764;9.174;2023-04-09T02:55:13;7.30;99.90
1205;DHT22;592;48.764;9.174;2023-04-09T02:57:40;7.30;99.90
1205;DHT22;592;48.764;9.174;2023-04-09T03:00:07;7.30;99.90
1205;DHT22;592;48.764;9.174;2023-04-09T03:02:34;7.40;99.90
1205;DHT22;592;48.764;9.174;2023-04-09T03:05:02;7.00;99.90
1205;DHT22;592;48.764;9.174;2023-04-09T03:07:28;6.90;99.90
1205;DHT22;592;48.764;9.174;2023-04-09T03:09:57;6.70;99.90
1205;DHT22;592;48.764;9.174;2023-04-09T03:12:23;6.80;99.90
1205;DHT22;592;48.764;9.174;2023-04-09T03:14:50;6.90;99.90
1205;DHT22;592;48.764;9.174;2023-04-09T03:17:17;6.90;99.90
1205;DHT22;592;48.764;9.174;2023-04-09T03:19:43;7.00;99.90
1205;DHT22;592;48.764;9.174;2023-04-09T03:22:10;6.90;99.90
1205;DHT22;592;48.764;9.174;2023-04-09T03:24:37;7.10;99.90
1205;DHT22;592;48.764;9.174;2023-04-09T03:27:05;7.10;99.90
1205;DHT22;592;48.764;9.174;2023-04-09T03:29:32;7.10;99.90
1205;DHT22;592;48.764;9.174;2023-04-09T03:31:58;7.10;99.90
1205;DHT22;592;48.764;9.174;2023-04-09T03:34:25;7.10;99.90
1205;DHT22;592;48.764;9.174;2023-04-09T03:36:52;7.20;99.90
1205;DHT22;592;48.764;9.174;2023-04-09T03:39:18;7.20;99.90
1205;DHT22;592;48.764;9.174;2023-04-09T03:41:46;7.00;99.90
1205;DHT22;592;48.764;9.174;2023-04-09T03:44:14;6.80;99.90
1205;DHT22;592;48.764;9.174;2023-04-09T03:46:41;6.70;99.90
1205;DHT22;592;48.764;9.174;2023-04-09T03:49:07;6.60;99.90
1205;DHT22;592;48.764;9.174;2023-04-09T03:51:34;6.60;99.90
1205;DHT22;592;48.764;9.174;2023-04-09T03:54:01;6.50;99.90
1205;DHT22;592;48.764;9.174;2023-04-09T03:56:28;6.70;99.90
1205;DHT22;592;48.764;9.174;2023-04-09T03:58:54;6.80;99.90
1205;DHT22;592;48.764;9.174;2023-04-09T04:01:22;6.80;99.90
1205;DHT22;592;48.764;9.174;2023-04-09T04:03:49;6.90;99.90
1205;DHT22;592;48.764;9.174;2023-04-09T04:06:16;6.90;99.90
1205;DHT22;592;48.764;9.174;2023-04-09T04:08:42;7.00;99.90
1205;DHT22;592;48.764;9.174;2023-04-09T04:11:09;7.00;99.90
1205;DHT22;592;48.764;9.174;2023-04-09T04:13:36;7.10;99.90
1205;DHT22;592;48.764;9.174;2023-04-09T04:16:06;7.00;99.90
1205;DHT22;592;48.764;9.174;2023-04-09T04:18:34;7.00;99.90
1205;DHT22;592;48.764;9.174;2023-04-09T04:21:01;7.00;99.90
1205;DHT22;592;48.764;9.174;2023-04-09T04:23:28;7.00;99.90
1205;DHT22;592;48.764;9.174;2023-04-09T04:25:55;7.00;99.90
1205;DHT22;592;48.764;9.174;2023-04-09T04:28:22;6.80;99.90
1205;DHT22;592;48.764;9.174;2023-04-09T04:30:49;6.70;99.90
1205;DHT22;592;48.764;9.174;2023-04-09T04:33:16;6.80;99.90
1205;DHT22;592;48.764;9.174;2023-04-09T04:35:44;6.90;99.90
1205;DHT22;592;48.764;9.174;2023-04-09T04:38:10;6.90;99.90
1205;DHT22;592;48.764;9.174;2023-04-09T04:40:37;6.90;99.90
1205;DHT22;592;48.764;9.174;2023-04-09T04:43:04;7.00;99.90
1205;DHT22;592;48.764;9.174;2023-04-09T04:45:31;6.90;99.90
1205;DHT22;592;48.764;9.174;2023-04-09T04:47:57;6.90;99.90
1205;DHT22;592;48.764;9.174;2023-04-09T04:50:24;6.90;99.90
1205;DHT22;592;48.764;9.174;2023-04-09T04:52:52;7.00;99.90
1205;DHT22;592;48.764;9.174;2023-04-09T04:55:19;7.00;99.90
1205;DHT22;592;48.764;9.174;2023-04-09T04:57:45;7.00;99.90
1205;DHT22;592;48.764;9.174;2023-04-09T05:00:13;7.00;99.90
1205;DHT22;592;48.764;9.174;2023-04-09T05:02:39;7.00;99.90
1205;DHT22;592;48.764;9.174;2023-04-09T05:05:07;6.70;99.90
1205;DHT22;592;48.764;9.174;2023-04-09T05:07:33;6.70;99.90
1205;DHT22;592;48.764;9.174;2023-04-09T05:10:01;6.80;99.90
1205;DHT22;592;48.764;9.174;2023-04-09T05:12:30;6.90;99.90
1205;DHT22;592;48.764;9.174;2023-04-09T05:14:57;6.90;99.90
1205;DHT22;592;48.764;9.174;2023-04-09T05:17:23;7.00;99.90
1205;DHT22;592;48.764;9.174;2023-04-09T05:19:50;7.00;99.90
1205;DHT22;592;48.764;9.174;2023-04-09T05:22:18;6.70;99.90
1205;DHT22;592;48.764;9.174;2023-04-09T05:24:44;6.70;99.90
1205;DHT22;592;48.764;9.174;2023-04-09T05:27:12;6.80;99.90
1205;DHT22;592;48.764;9.174;2023-04-09T05:29:39;6.90;99.90
1205;DHT22;592;48.764;9.174;2023-04-09T05:32:07;7.00;99.90
1205;DHT22;592;48.764;9.174;2023-04-09T05:34:34;6.80;99.90
1205;DHT22;592;48.764;9.174;2023-04-09T05:37:00;6.90;99.90
1205;DHT22;592;48.764;9.174;2023-04-09T05:39:27;6.80;99.90
1205;DHT22;592;48.764;9.174;2023-04-09T05:41:54;6.90;99.90
1205;DHT22;592;48.764;9.174;2023-04-09T05:44:22;7.00;99.90
1205;DHT22;592;48.764;9.174;2023-04-09T05:46:49;7.10;99.90
1205;DHT22;592;48.764;9.174;2023-04-09T05:49:15;7.20;99.90
1205;DHT22;592;48.764;9.174;2023-04-09T05:51:42;7.20;99.90
1205;DHT22;592;48.764;9.174;2023-04-09T05:54:09;7.30;99.90
1205;DHT22;592;48.764;9.174;2023-04-09T05:56:36;7.40;99.90
1205;DHT22;592;48.764;9.174;2023-04-09T05:59:03;7.50;99.90
1205;DHT22;592;48.764;9.174;2023-04-09T06:01:31;7.50;99.90
1205;DHT22;592;48.764;9.174;2023-04-09T06:03:57;7.70;99.90
1205;DHT22;592;48.764;9.174;2023-04-09T06:06:24;8.00;99.90
1205;DHT22;592;48.764;9.174;2023-04-09T06:08:51;8.30;99.90
1205;DHT22;592;48.764;9.174;2023-04-09T06:11:18;9.00;99.90
1205;DHT22;592;48.764;9.174;2023-04-09T06:13:45;10.30;99.90
1205;DHT22;592;48.764;9.174;2023-04-09T06:16:12;11.10;99.90
1205;DHT22;592;48.764;9.174;2023-04-09T06:18:40;11.40;99.90
1205;DHT22;592;48.764;9.174;2023-04-09T06:21:08;11.00;99.90
1205;DHT22;592;48.764;9.174;2023-04-09T06:23:35;11.70;99.90
1205;DHT22;592;48.764;9.174;2023-04-09T06:26:02;12.20;99.90
1205;DHT22;592;48.764;9.174;2023-04-09T06:28:29;12.50;99.90
1205;DHT22;592;48.764;9.174;2023-04-09T06:30:57;12.10;99.90
1205;DHT22;592;48.764;9.174;2023-04-09T06:33:23;11.40;99.90
1205;DHT22;592;48.764;9.174;2023-04-09T06:35:51;11.50;99.90
1205;DHT22;592;48.764;9.174;2023-04-09T06:38:18;12.00;99.90
1205;DHT22;592;48.764;9.174;2023-04-09T06:40:45;12.70;99.90
1205;DHT22;592;48.764;9.174;2023-04-09T06:43:12;12.10;99.90
1205;DHT22;592;48.764;9.174;2023-04-09T06:45:38;11.00;99.90
1205;DHT22;592;48.764;9.174;2023-04-09T06:48:05;10.40;99.90
1205;DHT22;592;48.764;9.174;2023-04-09T06:50:32;10.20;99.90
1205;DHT22;592;48.764;9.174;2023-04-09T06:53:01;10.00;99.90
1205;DHT22;592;48.764;9.174;2023-04-09T06:55:28;9.80;99.90
1205;DHT22;592;48.764;9.174;2023-04-09T06:57:55;9.90;99.90
1205;DHT22;592;48.764;9.174;2023-04-09T07:00:21;9.80;99.90
1205;DHT22;592;48.764;9.174;2023-04-09T07:02:48;9.80;99.90
1205;DHT22;592;48.764;9.174;2023-04-09T07:05:15;9.70;99.90
1205;DHT22;592;48.764;9.174;2023-04-09T07:07:42;9.60;99.90
1205;DHT22;592;48.764;9.174;2023-04-09T07:10:10;9.60;99.90
1205;DHT22;592;48.764;9.174;2023-04-09T07:12:37;9.70;99.90
1205;DHT22;592;48.764;9.174;2023-04-09T07:15:08;9.70;99.90
1205;DHT22;592;48.764;9.174;2023-04-09T07:17:34;9.70;99.90
1205;DHT22;592;48.764;9.174;2023-04-09T07:20:01;9.80;99.90
1205;DHT22;592;48.764;9.174;2023-04-09T07:22:28;9.80;99.90
1205;DHT22;592;48.764;9.174;2023-04-09T07:24:56;9.80;99.90
1205;DHT22;592;48.764;9.174;2023-04-09T07:27:25;9.70;99.90
1205;DHT22;592;48.764;9.174;2023-04-09T07:29:53;9.80;99.90
1205;DHT22;592;48.764;9.174;2023-04-09T07:32:21;9.90;99.90
1205;DHT22;592;48.764;9.174;2023-04-09T07:34:49;9.80;99.90
1205;DHT22;592;48.764;9.174;2023-04-09T07:37:16;9.70;99.90
1205;DHT22;592;48.764;9.174;2023-04-09T07:39:43;9.70;99.90
1205;DHT22;592;48.764;9.174;2023-04-09T07:42:09;9.60;99.90
1205;DHT22;592;48.764;9.174;2023-04-09T07:44:37;9.50;99.90
1205;DHT22;592;48.764;9.174;2023-04-09T07:47:07;9.60;99.90
1205;DHT22;592;48.764;9.174;2023-04-09T07:49:34;9.80;99.90
1205;DHT22;592;48.764;9.174;2023-04-09T07:52:02;9.80;99.90
1205;DHT22;592;48.764;9.174;2023-04-09T07:54:29;9.80;99.90
1205;DHT22;592;48.764;9.174;2023-04-09T07:56:56;9.90;99.90
1205;DHT22;592;48.764;9.174;2023-04-09T07:59:22;10.00;99.90
1205;DHT22;592;48.764;9.174;2023-04-09T08:01:51;10.00;99.90
1205;DHT22;592;48.764;9.174;2023-04-09T08:04:17;10.20;99.90
1205;DHT22;592;48.764;9.174;2023-04-09T08:06:44;10.10;99.90
1205;DHT22;592;48.764;9.174;2023-04-09T08:09:15;10.10;99.90
1205;DHT22;592;48.764;9.174;2023-04-09T08:11:41;10.00;99.90
1205;DHT22;592;48.764;9.174;2023-04-09T08:14:10;10.10;99.90
1205;DHT22;592;48.764;9.174;2023-04-09T08:16:38;10.30;99.90
1205;DHT22;592;48.764;9.174;2023-04-09T08:19:07;10.30;99.90
1205;DHT22;592;48.764;9.174;2023-04-09T08:21:35;10.40;99.90
1205;DHT22;592;48.764;9.174;2023-04-09T08:24:02;10.40;99.90
1205;DHT22;592;48.764;9.174;2023-04-09T08:26:30;10.70;99.90
1205;DHT22;592;48.764;9.174;2023-04-09T08:28:57;10.90;99.90
1205;DHT22;592;48.764;9.174;2023-04-09T08:31:23;10.80;99.90
1205;DHT22;592;48.764;9.174;2023-04-09T08:33:50;10.80;99.90
1205;DHT22;592;48.764;9.174;2023-04-09T08:36:19;10.70;99.90
1205;DHT22;592;48.764;9.174;2023-04-09T08:38:46;10.90;99.90
1205;DHT22;592;48.764;9.174;2023-04-09T08:41:23;11.00;99.90
1205;DHT22;592;48.764;9.174;2023-04-09T08:43:51;11.00;99.50
1205;DHT22;592;48.764;9.174;2023-04-09T08:46:18;11.10;99.30
1205;DHT22;592;48.764;9.174;2023-04-09T08:48:46;11.10;99.80
1205;DHT22;592;48.764;9.174;2023-04-09T08:51:13;11.10;99.60
1205;DHT22;592;48.764;9.174;2023-04-09T08:53:44;11.30;99.60
1205;DHT22;592;48.764;9.174;2023-04-09T08:56:12;11.40;99.40
1205;DHT22;592;48.764;9.174;2023-04-09T08:58:41;11.40;99.70
1205;DHT22;592;48.764;9.174;2023-04-09T09:01:18;11.40;99.40
1205;DHT22;592;48.764;9.174;2023-04-09T09:03:53;11.40;99.90
1205;DHT22;592;48.764;9.174;2023-04-09T09:06:21;11.50;99.60
1205;DHT22;592;48.764;9.174;2023-04-09T09:09:03;11.40;99.30
1205;DHT22;592;48.764;9.174;2023-04-09T09:11:31;11.40;98.90
1205;DHT22;592;48.764;9.174;2023-04-09T09:14:00;11.40;99.90
1205;DHT22;592;48.764;9.174;2023-04-09T09:16:28;11.40;99.90
1205;DHT22;592;48.764;9.174;2023-04-09T09:18:55;11.60;99.90
1205;DHT22;592;48.764;9.174;2023-04-09T09:21:22;11.60;99.40
1205;DHT22;592;48.764;9.174;2023-04-09T09:23:49;11.40;99.40
1205;DHT22;592;48.764;9.174;2023-04-09T09:26:20;11.40;99.90
1205;DHT22;592;48.764;9.174;2023-04-09T09:28:48;11.50;99.10
1205;DHT22;592;48.764;9.174;2023-04-09T09:31:16;11.70;99.50
1205;DHT22;592;48.764;9.174;2023-04-09T09:33:43;11.80;99.80
1205;DHT22;592;48.764;9.174;2023-04-09T09:36:11;11.80;99.20
1205;DHT22;592;48.764;9.174;2023-04-09T09:38:52;11.50;98.60
1205;DHT22;592;48.764;9.174;2023-04-09T09:41:20;11.50;98.80
1205;DHT22;592;48.764;9.174;2023-04-09T09:43:47;11.60;98.60
1205;DHT22;592;48.764;9.174;2023-04-09T09:46:15;11.70;98.70
1205;DHT22;592;48.764;9.174;2023-04-09T09:48:43;11.60;98.60
1205;DHT22;592;48.764;9.174;2023-04-09T09:51:12;11.80;97.70
1205;DHT22;592;48.764;9.174;2023-04-09T09:53:40;11.90;97.90
1205;DHT22;592;48.764;9.174;2023-04-09T09:56:13;12.00;98.40
1205;DHT22;592;48.764;9.174;2023-04-09T09:58:45;12.00;95.30
1205;DHT22;592;48.764;9.174;2023-04-09T10:01:16;12.10;96.00
1205;DHT22;592;48.764;9.174;2023-04-09T10:03:46;12.00;95.40
1205;DHT22;592;48.764;9.174;2023-04-09T10:06:15;11.80;96.00
1205;DHT22;592;48.764;9.174;2023-04-09T10:08:42;11.70;95.30
1205;DHT22;592;48.764;9.174;2023-04-09T10:11:09;11.60;94.80
1205;DHT22;592;48.764;9.174;2023-04-09T10:13:39;11.70;95.20
1205;DHT22;592;48.764;9.174;2023-04-09T10:16:08;11.30;94.40
1205;DHT22;592;48.764;9.174;2023-04-09T10:18:35;11.50;95.70
1205;DHT22;592;48.764;9.174;2023-04-09T10:21:06;11.30;94.70
1205;DHT22;592;48.764;9.174;2023-04-09T10:23:40;11.30;95.30
1205;DHT22;592;48.764;9.174;2023-04-09T10:26:08;11.50;94.40
1205;DHT22;592;48.764;9.174;2023-04-09T10:28:36;11.80;95.90
1205;DHT22;592;48.764;9.174;2023-04-09T10:31:04;11.50;94.50
1205;DHT22;592;48.764;9.174;2023-04-09T10:33:35;11.40;94.60
1205;DHT22;592;48.764;9.174;2023-04-09T10:36:03;11.30;93.80
1205;DHT22;592;48.764;9.174;2023-04-09T10:38:35;11.20;93.60
1205;DHT22;592;48.764;9.174;2023-04-09T10:41:21;11.10;94.80
1205;DHT22;592;48.764;9.174;2023-04-09T10:43:48;11.30;96.30
1205;DHT22;592;48.764;9.174;2023-04-09T10:46:25;11.30;95.60
1205;DHT22;592;48.764;9.174;2023-04-09T10:49:10;11.40;95.90
1205;DHT22;592;48.764;9.174;2023-04-09T10:51:38;11.70;96.60
1205;DHT22;592;48.764;9.174;2023-04-09T10:54:05;11.80;94.70
1205;DHT22;592;48.764;9.174;2023-04-09T10:56:32;11.60;94.80
1205;DHT22;592;48.764;9.174;2023-04-09T10:58:59;11.50;94.10
1205;DHT22;592;48.764;9.174;2023-04-09T11:01:26;11.80;95.00
1205;DHT22;592;48.764;9.174;2023-04-09T11:04:07;12.00;93.50
1205;DHT22;592;48.764;9.174;2023-04-09T11:06:37;11.90;94.50
1205;DHT22;592;48.764;9.174;2023-04-09T11:09:05;11.90;94.80
1205;DHT22;592;48.764;9.174;2023-04-09T11:11:32;11.90;95.00
1205;DHT22;592;48.764;9.174;2023-04-09T11:14:00;12.10;95.20
1205;DHT22;592;48.764;9.174;2023-04-09T11:16:28;12.20;95.40
1205;DHT22;592;48.764;9.174;2023-04-09T11:18:55;12.20;94.60
1205;DHT22;592;48.764;9.174;2023-04-09T11:21:26;12.00;94.80
1205;DHT22;592;48.764;9.174;2023-04-09T11:23:54;12.00;95.30
1205;DHT22;592;48.764;9.174;2023-04-09T11:26:34;11.80;94.80
1205;DHT22;592;48.764;9.174;2023-04-09T11:29:04;11.90;95.40
1205;DHT22;592;48.764;9.174;2023-04-09T11:31:31;11.80;94.40
1205;DHT22;592;48.764;9.174;2023-04-09T11:33:58;11.80;94.50
1205;DHT22;592;48.764;9.174;2023-04-09T11:36:25;11.90;95.20
1205;DHT22;592;48.764;9.174;2023-04-09T11:38:54;11.80;94.90
1205;DHT22;592;48.764;9.174;2023-04-09T11:41:32;11.70;94.40
1205;DHT22;592;48.764;9.174;2023-04-09T11:44:01;11.60;94.30
1205;DHT22;592;48.764;9.174;2023-04-09T11:46:28;11.70;95.20
1205;DHT22;592;48.764;9.174;2023-04-09T11:48:55;11.90;95.40
1205;DHT22;592;48.764;9.174;2023-04-09T11:51:22;11.90;94.50
1205;DHT22;592;48.764;9.174;2023-04-09T11:53:51;11.90;94.20
1205;DHT22;592;48.764;9.174;2023-04-09T11:56:19;11.70;94.20
1205;DHT22;592;48.764;9.174;2023-04-09T11:58:47;11.70;94.90
1205;DHT22;592;48.764;9.174;2023-04-09T12:01:14;11.70;94.40
1205;DHT22;592;48.764;9.174;2023-04-09T12:03:41;11.80;94.40
1205;DHT22;592;48.764;9.174;2023-04-09T12:06:08;11.80;94.70
1205;DHT22;592;48.764;9.174;2023-04-09T12:08:38;12.10;94.60
1205;DHT22;592;48.764;9.174;2023-04-09T12:11:09;12.10;94.10
1205;DHT22;592;48.764;9.174;2023-04-09T12:13:37;12.10;94.00
1205;DHT22;592;48.764;9.174;2023-04-09T12:16:07;12.10;93.70
1205;DHT22;592;48.764;9.174;2023-04-09T12:18:35;12.40;94.30
1205;DHT22;592;48.764;9.174;2023-04-09T12:21:03;12.60;94.30
1205;DHT22;592;48.764;9.174;2023-04-09T12:23:30;12.50;93.50
1205;DHT22;592;48.764;9.174;2023-04-09T12:25:58;12.80;94.20
1205;DHT22;592;48.764;9.174;2023-04-09T12:28:27;12.90;93.40
1205;DHT22;592;48.764;9.174;2023-04-09T12:30:55;12.80;93.00
1205;DHT22;592;48.764;9.174;2023-04-09T12:33:23;12.80;93.20
1205;DHT22;592;48.764;9.174;2023-04-09T12:35:50;12.80;93.00
1205;DHT22;592;48.764;9.174;2023-04-09T12:38:17;12.90;93.60
1205;DHT22;592;48.764;9.174;2023-04-09T12:40:43;13.10;93.50
1205;DHT22;592;48.764;9.174;2023-04-09T12:43:10;13.30;94.10
1205;DHT22;592;48.764;9.174;2023-04-09T12:45:37;13.40;94.00
1205;DHT22;592;48.764;9.174;2023-04-09T12:48:05;13.40;93.00
1205;DHT22;592;48.764;9.174;2023-04-09T12:50:32;13.60;93.10
1205;DHT22;592;48.764;9.174;2023-04-09T12:52:59;13.80;93.50
1205;DHT22;592;48.764;9.174;2023-04-09T12:55:25;13.60;91.80
1205;DHT22;592;48.764;9.174;2023-04-09T12:57:52;13.60;93.10
1205;DHT22;592;48.764;9.174;2023-04-09T13:00:19;13.50;91.60
1205;DHT22;592;48.764;9.174;2023-04-09T13:02:45;13.20;92.20
1205;DHT22;592;48.764;9.174;2023-04-09T13:05:13;13.20;92.60
1205;DHT22;592;48.764;9.174;2023-04-09T13:07:40;13.40;93.50
1205;DHT22;592;48.764;9.174;2023-04-09T13:10:08;13.50;92.40
1205;DHT22;592;48.764;9.174;2023-04-09T13:12:35;13.50;92.40
1205;DHT22;592;48.764;9.174;2023-04-09T13:15:01;13.70;92.50
1205;DHT22;592;48.764;9.174;2023-04-09T13:17:28;13.90;91.70
1205;DHT22;592;48.764;9.174;2023-04-09T13:19:55;13.90;91.00
1205;DHT22;592;48.764;9.174;2023-04-09T13:22:23;13.90;92.20
1205;DHT22;592;48.764;9.174;2023-04-09T13:24:50;13.80;91.60
1205;DHT22;592;48.764;9.174;2023-04-09T13:27:17;13.80;92.00
1205;DHT22;592;48.764;9.174;2023-04-09T13:29:43;13.90;91.90
1205;DHT22;592;48.764;9.174;2023-04-09T13:32:10;13.70;91.00
1205;DHT22;592;48.764;9.174;2023-04-09T13:34:37;14.00;92.40
1205;DHT22;592;48.764;9.174;2023-04-09T13:37:05;14.20;91.30
1205;DHT22;592;48.764;9.174;2023-04-09T13:39:33;14.60;91.50
1205;DHT22;592;48.764;9.174;2023-04-09T13:42:00;15.50;90.30
1205;DHT22;592;48.764;9.174;2023-04-09T13:44:27;16.20;89.70
1205;DHT22;592;48.764;9.174;2023-04-09T13:46:54;16.70;87.00
1205;DHT22;592;48.764;9.174;2023-04-09T13:49:21;17.20;87.50
1205;DHT22;592;48.764;9.174;2023-04-09T13:51:48;17.50;86.30
1205;DHT22;592;48.764;9.174;2023-04-09T13:54:14;16.90;86.80
1205;DHT22;592;48.764;9.174;2023-04-09T13:56:43;17.00;84.80
1205;DHT22;592;48.764;9.174;2023-04-09T13:59:10;17.30;84.40
1205;DHT22;592;48.764;9.174;2023-04-09T14:01:37;17.50;83.00
1205;DHT22;592;48.764;9.174;2023-04-09T14:04:03;17.70;82.40
1205;DHT22;592;48.764;9.174;2023-04-09T14:06:30;17.90;84.10
1205;DHT22;592;48.764;9.174;2023-04-09T14:08:57;18.50;86.80
1205;DHT22;592;48.764;9.174;2023-04-09T14:11:24;18.70;82.00
1205;DHT22;592;48.764;9.174;2023-04-09T14:13:52;19.00;82.80
1205;DHT22;592;48.764;9.174;2023-04-09T14:16:18;19.10;82.00
1205;DHT22;592;48.764;9.174;2023-04-09T14:18:45;18.90;78.00
1205;DHT22;592;48.764;9.174;2023-04-09T14:21:12;18.80;79.80
1205;DHT22;592;48.764;9.174;2023-04-09T14:23:39;19.00;79.60
1205;DHT22;592;48.764;9.174;2023-04-09T14:26:07;19.80;82.90
1205;DHT22;592;48.764;9.174;2023-04-09T14:28:34;19.70;76.70
1205;DHT22;592;48.764;9.174;2023-04-09T14:31:04;19.70;76.70
1205;DHT22;592;48.764;9.174;2023-04-09T14:33:31;19.70;74.60
1205;DHT22;592;48.764;9.174;2023-04-09T14:35:59;20.00;77.30
1205;DHT22;592;48.764;9.174;2023-04-09T14:38:26;20.20;77.20
1205;DHT22;592;48.764;9.174;2023-04-09T14:40:53;20.20;75.30
1205;DHT22;592;48.764;9.174;2023-04-09T14:43:19;20.40;74.20
1205;DHT22;592;48.764;9.174;2023-04-09T14:45:46;20.40;71.90
1205;DHT22;592;48.764;9.174;2023-04-09T14:48:14;20.70;75.90
1205;DHT22;592;48.764;9.174;2023-04-09T14:50:41;20.30;73.00
1205;DHT22;592;48.764;9.174;2023-04-09T14:53:08;20.60;71.80
1205;DHT22;592;48.764;9.174;2023-04-09T14:55:35;21.10;73.10
1205;DHT22;592;48.764;9.174;2023-04-09T14:58:04;21.10;72.20
1205;DHT22;592;48.764;9.174;2023-04-09T15:00:33;21.10;73.00
1205;DHT22;592;48.764;9.174;2023-04-09T15:03:00;20.70;70.00
1205;DHT22;592;48.764;9.174;2023-04-09T15:05:29;20.50;70.50
1205;DHT22;592;48.764;9.174;2023-04-09T15:07:56;20.80;71.00
1205;DHT22;592;48.764;9.174;2023-04-09T15:10:23;21.30;72.10
1205;DHT22;592;48.764;9.174;2023-04-09T15:12:50;21.40;71.50
1205;DHT22;592;48.764;9.174;2023-04-09T15:15:16;21.50;68.20
1205;DHT22;592;48.764;9.174;2023-04-09T15:17:43;20.80;70.20
1205;DHT22;592;48.764;9.174;2023-04-09T15:20:10;21.00;70.80
1205;DHT22;592;48.764;9.174;2023-04-09T15:22:39;21.20;70.20
1205;DHT22;592;48.764;9.174;2023-04-09T15:25:06;20.70;68.40
1205;DHT22;592;48.764;9.174;2023-04-09T15:27:33;19.80;69.30
1205;DHT22;592;48.764;9.174;2023-04-09T15:30:00;19.30;70.20
1205;DHT22;592;48.764;9.174;2023-04-09T15:32:28;18.80;70.70
1205;DHT22;592;48.764;9.174;2023-04-09T15:34:55;18.40;72.40
1205;DHT22;592;48.764;9.174;2023-04-09T15:37:22;17.80;72.00
1205;DHT22;592;48.764;9.174;2023-04-09T15:39:50;17.60;73.40
1205;DHT22;592;48.764;9.174;2023-04-09T15:42:16;17.60;73.80
1205;DHT22;592;48.764;9.174;2023-04-09T15:44:47;17.30;73.10
1205;DHT22;592;48.764;9.174;2023-04-09T15:47:13;17.10;73.70
1205;DHT22;592;48.764;9.174;2023-04-09T15:49:40;16.70;73.60
1205;DHT22;592;48.764;9.174;2023-04-09T15:52:07;16.60;74.90
1205;DHT22;592;48.764;9.174;2023-04-09T15:54:34;16.30;75.80
1205;DHT22;592;48.764;9.174;2023-04-09T15:57:02;16.10;75.40
1205;DHT22;592;48.764;9.174;2023-04-09T15:59:29;16.10;77.10
1205;DHT22;592;48.764;9.174;2023-04-09T16:01:56;15.90;76.50
1205;DHT22;592;48.764;9.174;2023-04-09T16:04:23;15.80;76.70
1205;DHT22;592;48.764;9.174;2023-04-09T16:06:51;15.40;76.30
1205;DHT22;592;48.764;9.174;2023-04-09T16:09:19;15.30;78.60
1205;DHT22;592;48.764;9.174;2023-04-09T16:11:46;15.30;78.70
1205;DHT22;592;48.764;9.174;2023-04-09T16:14:14;15.20;78.50
1205;DHT22;592;48.764;9.174;2023-04-09T16:16:41;15.10;79.50
1205;DHT22;592;48.764;9.174;2023-04-09T16:19:11;15.00;78.40
1205;DHT22;592;48.764;9.174;2023-04-09T16:21:38;14.80;78.90
1205;DHT22;592;48.764;9.174;2023-04-09T16:24:08;14.80;79.30
1205;DHT22;592;48.764;9.174;2023-04-09T16:26:35;14.70;81.10
1205;DHT22;592;48.764;9.174;2023-04-09T16:29:02;14.70;81.50